Hanjin Namu — VRNA8 — position and weather

sailwx.info

Track history (hours):
 
Tides and Currents Weather Stations Pressure Air Temp Water Temp Dewpoint Dewpoint Depression Visibility Wind Speed Wind Dir Waves Ship Positions

Hanjin Namu

Last reported at 2018-Jun-16 00:33 UTC. Time now 2018-Jun-23 00:54 UTC.
Position N 37°24' E 005°54'.

Length 337 m; draft 13.6 m.

Type: Ship (hazmat cat A). MMSI: 477441400.

Date/timePositionNaut miles runAvg speedWind from/ knotsBaromVisibWave heightAir tempDewpointWater temp
2018-Jun-16 00:33N 37°24' E 005°54'220.2
2018-Jun-16 00:28N 37°23' E 005°51'920.3
2018-Jun-16 00:00N 37°22' E 005°40'4820.5
2018-Jun-15 21:39N 37°17' E 004°40'320.2
2018-Jun-15 21:30N 37°16' E 004°36'1020.1
2018-Jun-15 21:00N 37°15' E 004°23'1019.9
2018-Jun-15 20:30N 37°14' E 004°11'1019.9
2018-Jun-15 20:00N 37°13' E 003°59'1619.5
2018-Jun-15 19:10N 37°11' E 003°38'319.1
2018-Jun-15 19:00N 37°11' E 003°34'919.0
2018-Jun-15 18:30N 37°10' E 003°22'1019.1
2018-Jun-15 18:00N 37°08' E 003°11'1019.3
2018-Jun-15 17:30N 37°08' E 002°59'1019.7
2018-Jun-15 17:00N 37°07' E 002°46'1020.6
2018-Jun-15 16:30N 37°05' E 002°34'1121.2
2018-Jun-15 16:00N 37°04' E 002°20'1020.7
2018-Jun-15 15:30N 37°03' E 002°07'1020.6
2018-Jun-15 15:00N 37°01' E 001°55'1020.5
2018-Jun-15 14:30N 36°58' E 001°42'1020.4
2018-Jun-15 14:00N 36°56' E 001°30'1020.5
2018-Jun-15 13:30N 36°54' E 001°17'1020.5
2018-Jun-15 13:00N 36°52' E 001°05'1020.4
2018-Jun-15 12:30N 36°50' E 000°52'1020.3
2018-Jun-15 12:00N 36°47' E 000°40'1020.2
2018-Jun-15 11:30N 36°46' E 000°28'1020.1
2018-Jun-15 11:00N 36°43' E 000°15'1020.2
2018-Jun-15 10:30N 36°41' E 000°03'1020.3
2018-Jun-15 10:00N 36°39' W 000°09'1019.8
2018-Jun-15 09:30N 36°36' W 000°21'1019.8
2018-Jun-15 09:00N 36°34' W 000°33'1020.0
2018-Jun-15 08:30N 36°31' W 000°45'1019.8
2018-Jun-15 08:00N 36°30' W 000°58'1019.8
2018-Jun-15 07:29N 36°27' W 001°10'1020.1
2018-Jun-15 07:00N 36°26' W 001°22'1220.2
2018-Jun-15 06:24N 36°24' W 001°36'17720.9
2018-Jun-14 21:57N 36°00' W 005°14'919.5
2018-Jun-14 21:31N 35°58' W 005°24'816.1
2018-Jun-14 21:00N 35°56' W 005°34'1514.4
2018-Jun-14 19:59N 35°54' W 005°52'714.2
2018-Jun-14 19:30N 35°54' W 006°00'3721.2
2018-Jun-14 17:44N 36°01' W 006°46'621.2
2018-Jun-14 17:28N 36°03' W 006°53'1021.0
2018-Jun-14 17:00N 36°04' W 007°04'1121.6
2018-Jun-14 16:30N 36°07' W 007°17'1020.7
2018-Jun-14 16:00N 36°10' W 007°30'1221.1
2018-Jun-14 15:26N 36°13' W 007°44'1020.9
2018-Jun-14 14:58N 36°15' W 007°56'1120.7
2018-Jun-14 14:28N 36°18' W 008°08'1020.7
2018-Jun-14 14:00N 36°21' W 008°20'1020.8
2018-Jun-14 13:30N 36°24' W 008°32'1120.8
2018-Jun-14 12:58N 36°27' W 008°46'1020.6
2018-Jun-14 12:30N 36°29' W 008°57'1020.6
2018-Jun-14 12:00N 36°32' W 009°09'4519.1
2018-Jun-14 09:39N 37°10' W 009°40'820.6
2018-Jun-14 09:17N 37°17' W 009°43'620.6
2018-Jun-14 08:59N 37°23' W 009°45'1020.4
2018-Jun-14 08:28N 37°33' W 009°48'1020.6
2018-Jun-14 08:00N 37°42' W 009°50'1020.3
2018-Jun-14 07:30N 37°53' W 009°53'1020.5
2018-Jun-14 07:00N 38°02' W 009°55'1020.4
2018-Jun-14 06:30N 38°12' W 009°58'1020.5
2018-Jun-14 06:00N 38°22' W 010°01'1020.5
2018-Jun-14 05:30N 38°33' W 010°03'1020.4
2018-Jun-14 05:00N 38°42' W 010°05'1120.8
2018-Jun-14 04:30N 38°53' W 010°05'1020.9
2018-Jun-14 04:00N 39°03' W 010°05'1020.7
2018-Jun-14 03:30N 39°14' W 010°06'1020.6
2018-Jun-14 03:00N 39°24' W 010°07'5220.7
2018-Jun-14 00:29N 40°16' W 010°06'2520.7
2018-Jun-13 23:16N 40°41' W 010°06'520.5
2018-Jun-13 23:00N 40°46' W 010°06'47120.1
2018-Jun-12 23:33N 48°10' W 006°24'1920.0
2018-Jun-12 22:37N 48°25' W 006°08'1720.8
2018-Jun-12 21:46N 48°41' W 005°55'921.2
2018-Jun-12 21:22N 48°48' W 005°49'820.9
2018-Jun-12 21:00N 48°55' W 005°43'1821.6
2018-Jun-12 20:11N 49°05' W 005°21'420.6
2018-Jun-12 20:00N 49°07' W 005°16'1218.0
2018-Jun-12 19:22N 49°12' W 004°60'717.3
2018-Jun-12 18:57N 49°15' W 004°50'716.8
2018-Jun-12 18:30N 49°19' W 004°41'1416.0
2018-Jun-12 17:40N 49°26' W 004°22'2915.4
2018-Jun-12 15:45N 49°41' W 003°44'615.6
2018-Jun-12 15:24N 49°44' W 003°36'716.0
2018-Jun-12 14:57N 49°47' W 003°27'716.6
2018-Jun-12 14:31N 49°51' W 003°17'917.3
2018-Jun-12 14:00N 49°56' W 003°05'918.0
2018-Jun-12 13:31N 49°59' W 002°53'918.7
2018-Jun-12 13:01N 50°02' W 002°39'1319.3
2018-Jun-12 12:21N 50°06' W 002°20'719.7
2018-Jun-12 12:00N 50°10' W 002°11'1019.6
2018-Jun-12 11:31N 50°15' W 001°58'1019.2
2018-Jun-12 11:00N 50°19' W 001°44'918.4
2018-Jun-12 10:30N 50°23' W 001°31'918.3
2018-Jun-12 10:01N 50°27' W 001°19'918.6
2018-Jun-12 09:30N 50°32' W 001°06'816.5
2018-Jun-12 09:01N 50°38' W 000°57'5 9.9
2018-Jun-12 08:30N 50°43' W 000°59'815.8
2018-Jun-12 08:00N 50°46' W 001°11'510.3
2018-Jun-12 07:30N 50°48' W 001°18'4 8.6
2018-Jun-12 07:00N 50°52' W 001°22'4 7.7
2018-Jun-12 06:30N 50°54' W 001°26'1 1.7
2018-Jun-12 06:00N 50°54' W 001°27'0 0.0
2018-Jun-11 11:17N 50°54' W 001°28'0 0.0
2018-Jun-11 10:59N 50°54' W 001°28'0 0.0
2018-Jun-11 10:29N 50°54' W 001°28'0 0.0
2018-Jun-11 09:17N 50°54' W 001°28'0 0.0
2018-Jun-11 08:47N 50°54' W 001°28'0 0.0
2018-Jun-11 06:44N 50°54' W 001°28'0 0.0
2018-Jun-11 06:29N 50°54' W 001°28'0 0.0
2018-Jun-11 05:59N 50°54' W 001°28'0 0.0
2018-Jun-11 05:29N 50°54' W 001°28'0 0.0
2018-Jun-11 04:59N 50°54' W 001°28'0 0.0
2018-Jun-11 04:14N 50°54' W 001°28'0 0.0
2018-Jun-11 03:05N 50°54' W 001°28'0 0.0
2018-Jun-11 02:59N 50°54' W 001°28'0 0.0
2018-Jun-11 02:29N 50°54' W 001°28'0 0.0
2018-Jun-11 01:47N 50°54' W 001°28'0 0.0
2018-Jun-11 01:29N 50°54' W 001°28'0 0.0
2018-Jun-11 00:59N 50°54' W 001°28'0 0.0
2018-Jun-11 00:29N 50°54' W 001°28'0 0.0
2018-Jun-10 08:11N 50°54' W 001°28'0 0.0
2018-Jun-10 06:51N 50°54' W 001°28'1 2.3
2018-Jun-10 06:30N 50°54' W 001°26'3 5.4
2018-Jun-10 06:00N 50°53' W 001°23'5 9.2
2018-Jun-10 05:30N 50°49' W 001°18'3 6.8
2018-Jun-10 05:01N 50°46' W 001°15'815.3
2018-Jun-10 04:30N 50°44' W 001°04'612.4
2018-Jun-10 04:00N 50°40' W 000°57'4 8.7
2018-Jun-10 03:30N 50°36' W 000°55'3 5.6
2018-Jun-10 03:00N 50°35' W 000°51'5 9.4
2018-Jun-10 02:30N 50°34' W 000°43'611.9
2018-Jun-10 02:00N 50°33' W 000°34'612.3
2018-Jun-10 01:30N 50°32' W 000°25'612.5
2018-Jun-10 01:00N 50°32' W 000°15'612.4
2018-Jun-10 00:30N 50°32' W 000°05'612.5
2018-Jun-10 00:00N 50°33' E 000°05'612.7
2018-Jun-09 23:30N 50°35' E 000°14'612.8
2018-Jun-09 23:00N 50°36' E 000°24'612.7
2018-Jun-09 22:30N 50°37' E 000°34'612.7
2018-Jun-09 22:00N 50°40' E 000°43'612.8
2018-Jun-09 21:30N 50°44' E 000°51'713.0
2018-Jun-09 21:00N 50°47' E 000°60'612.7
2018-Jun-09 20:30N 50°51' E 001°08'612.3
2018-Jun-09 20:00N 50°54' E 001°17'612.1
2018-Jun-09 19:30N 50°59' E 001°23'612.8
2018-Jun-09 19:00N 51°03' E 001°30'713.1
2018-Jun-09 18:30N 51°08' E 001°37'713.7
2018-Jun-09 18:01N 51°13' E 001°45'714.5
2018-Jun-09 17:31N 51°19' E 001°52'714.7
2018-Jun-09 17:00N 51°25' E 001°59'713.0
2018-Jun-09 16:30N 51°23' E 002°09'713.2
2018-Jun-09 16:00N 51°20' E 002°19'1414.5
2018-Jun-09 15:00N 51°23' E 002°41'714.9
2018-Jun-09 14:30N 51°25' E 002°53'917.6
2018-Jun-09 14:00N 51°24' E 003°07'918.2
2018-Jun-09 13:30N 51°24' E 003°21'918.6
2018-Jun-09 13:00N 51°26' E 003°36'714.8
2018-Jun-09 12:31N 51°22' E 003°46'815.2
2018-Jun-09 12:01N 51°24' E 003°57'4 8.9
2018-Jun-09 11:30N 51°22' E 004°04'611.9
2018-Jun-09 11:00N 51°22' E 004°13'2 3.9
2018-Jun-09 10:31N 51°21' E 004°16'0 0.0
2018-Jun-09 09:59N 51°21' E 004°16'0 0.0
2018-Jun-09 09:30N 51°21' E 004°16'0 0.0
2018-Jun-09 08:59N 51°21' E 004°16'0 0.0
2018-Jun-09 08:31N 51°21' E 004°16'0 0.0
2018-Jun-09 08:00N 51°21' E 004°16'0 0.0
2018-Jun-09 07:30N 51°21' E 004°16'0 0.0
2018-Jun-09 07:01N 51°21' E 004°16'0 0.0
2018-Jun-09 06:31N 51°21' E 004°16'0 0.0
2018-Jun-09 05:59N 51°21' E 004°16'0 0.0
2018-Jun-09 05:28N 51°21' E 004°16'0 0.0
2018-Jun-09 05:01N 51°21' E 004°16'0 0.0
2018-Jun-09 04:31N 51°21' E 004°16'0 0.0
2018-Jun-09 04:00N 51°21' E 004°16'0 0.0
2018-Jun-09 03:30N 51°21' E 004°16'0 0.0
2018-Jun-09 03:01N 51°21' E 004°16'0 0.0
2018-Jun-09 02:30N 51°21' E 004°16'0 0.0
2018-Jun-09 01:59N 51°21' E 004°16'0 0.0
2018-Jun-09 01:30N 51°21' E 004°16'0 0.0
2018-Jun-09 01:00N 51°21' E 004°16'0 0.0
2018-Jun-09 00:30N 51°21' E 004°16'0 0.0
2018-Jun-09 00:01N 51°21' E 004°16'0 0.0
2018-Jun-08 23:27N 51°21' E 004°16'0 0.0
2018-Jun-08 23:00N 51°21' E 004°16'0 0.0
2018-Jun-08 22:28N 51°21' E 004°16'0 0.0
2018-Jun-08 22:00N 51°21' E 004°16'0 0.0
2018-Jun-08 21:26N 51°21' E 004°16'0 0.0
2018-Jun-08 21:01N 51°21' E 004°16'0 0.0
2018-Jun-08 20:26N 51°21' E 004°16'0 0.0
2018-Jun-08 19:58N 51°21' E 004°16'0 0.0
2018-Jun-08 19:31N 51°21' E 004°16'0 0.0
2018-Jun-08 19:00N 51°21' E 004°16'0 0.0
2018-Jun-08 18:31N 51°21' E 004°16'0 0.0
2018-Jun-08 18:01N 51°21' E 004°16'0 0.0
2018-Jun-08 17:30N 51°21' E 004°16'0 0.0
2018-Jun-08 16:58N 51°21' E 004°16'0 0.0
2018-Jun-08 16:31N 51°21' E 004°16'0 0.0
2018-Jun-08 15:59N 51°21' E 004°16'0 0.0
2018-Jun-08 15:30N 51°21' E 004°16'0 0.0
2018-Jun-08 14:58N 51°21' E 004°16'0 0.0
2018-Jun-08 14:29N 51°21' E 004°16'0 0.0
2018-Jun-08 14:01N 51°21' E 004°16'0 0.0
2018-Jun-08 13:31N 51°21' E 004°16'0 0.0
2018-Jun-08 13:00N 51°21' E 004°16'0 0.0
2018-Jun-08 12:28N 51°21' E 004°16'0 0.0
2018-Jun-08 12:00N 51°21' E 004°16'0 0.0
2018-Jun-08 11:26N 51°21' E 004°16'0 0.0
2018-Jun-08 10:59N 51°21' E 004°16'0 0.4
2018-Jun-08 10:30N 51°21' E 004°15'4 7.1
2018-Jun-08 10:00N 51°24' E 004°12'611.3
2018-Jun-08 09:30N 51°22' E 004°03'4 8.7
2018-Jun-08 09:00N 51°25' E 003°58'612.6
2018-Jun-08 08:30N 51°21' E 003°51'612.2
2018-Jun-08 08:00N 51°23' E 003°43'5 9.3
2018-Jun-08 07:30N 51°26' E 003°36'713.1
2018-Jun-08 07:00N 51°25' E 003°26'918.9
2018-Jun-08 06:30N 51°24' E 003°11'714.7
2018-Jun-08 06:00N 51°26' E 002°59'817.0
2018-Jun-08 05:30N 51°33' E 003°08'917.5
2018-Jun-08 05:00N 51°41' E 003°12'612.6
2018-Jun-08 04:31N 51°47' E 003°16'612.4
2018-Jun-08 04:01N 51°54' E 003°16'713.3
2018-Jun-08 03:30N 51°60' E 003°19'714.1
2018-Jun-08 03:00N 52°07' E 003°21'713.9
2018-Jun-08 02:31N 52°14' E 003°22'714.0
2018-Jun-08 02:01N 52°21' E 003°25'713.8
2018-Jun-08 01:30N 52°28' E 003°27'713.9
2018-Jun-08 01:00N 52°34' E 003°29'612.9
2018-Jun-08 00:30N 52°40' E 003°34'713.6
2018-Jun-08 00:00N 52°45' E 003°41'713.5
2018-Jun-07 23:30N 52°51' E 003°48'713.5
2018-Jun-07 23:00N 52°56' E 003°56'713.5
2018-Jun-07 22:30N 53°00' E 004°04'713.4
2018-Jun-07 22:00N 53°04' E 004°12'713.6
2018-Jun-07 21:30N 53°09' E 004°21'713.4
2018-Jun-07 21:00N 53°14' E 004°28'713.7
2018-Jun-07 20:30N 53°21' E 004°31'713.9
2018-Jun-07 20:00N 53°27' E 004°36'714.9
2018-Jun-07 19:30N 53°31' E 004°47'815.3
2018-Jun-07 19:00N 53°34' E 004°59'815.1
2018-Jun-07 18:30N 53°37' E 005°11'815.1
2018-Jun-07 18:00N 53°39' E 005°23'815.0
2018-Jun-07 17:30N 53°41' E 005°35'814.7
2018-Jun-07 16:59N 53°44' E 005°47'714.3
2018-Jun-07 16:29N 53°46' E 005°59'714.0
2018-Jun-07 16:01N 53°48' E 006°09'713.6
2018-Jun-07 15:29N 53°50' E 006°21'4813.4
2018-Jun-07 11:55N 54°01' E 007°40'613.8
2018-Jun-07 11:28N 54°01' E 007°51'714.5
2018-Jun-07 10:58N 54°01' E 008°03'713.8
2018-Jun-07 10:29N 54°00' E 008°14'917.8
2018-Jun-07 10:00N 53°59' E 008°28'917.7
2018-Jun-07 09:30N 53°54' E 008°41'714.4
2018-Jun-07 09:00N 53°50' E 008°52'816.2
2018-Jun-07 08:30N 53°53' E 009°05'713.8
2018-Jun-07 08:00N 53°52' E 009°17'713.2
2018-Jun-07 07:30N 53°47' E 009°23'611.2
2018-Jun-07 07:00N 53°42' E 009°29'5 9.6
2018-Jun-07 06:30N 53°38' E 009°32'510.6
2018-Jun-07 06:00N 53°34' E 009°39'4 8.7
2018-Jun-07 05:30N 53°34' E 009°46'4 8.2
2018-Jun-07 05:00N 53°33' E 009°52'3 5.3
2018-Jun-07 04:30N 53°31' E 009°56'1 2.4
2018-Jun-07 03:58N 53°30' E 009°56'0 0.0
2018-Jun-07 03:28N 53°30' E 009°56'0 0.0
2018-Jun-07 02:58N 53°30' E 009°56'0 0.0
2018-Jun-07 02:28N 53°30' E 009°56'0 0.0
2018-Jun-07 01:58N 53°30' E 009°56'0 0.0
2018-Jun-07 01:28N 53°30' E 009°56'0 0.0
2018-Jun-07 00:58N 53°30' E 009°56'0 0.0
2018-Jun-07 00:28N 53°30' E 009°56'0 0.0
2018-Jun-06 23:58N 53°30' E 009°56'0 0.0
2018-Jun-06 23:28N 53°30' E 009°56'0 0.0
2018-Jun-06 22:58N 53°30' E 009°56'0 0.0
2018-Jun-06 22:28N 53°30' E 009°56'0 0.0
2018-Jun-06 21:58N 53°30' E 009°56'0 0.0
2018-Jun-06 21:28N 53°30' E 009°56'0 0.0
2018-Jun-06 20:58N 53°30' E 009°56'0 0.0
2018-Jun-06 20:28N 53°30' E 009°56'0 0.0
2018-Jun-06 19:58N 53°30' E 009°56'0 0.0
2018-Jun-06 19:28N 53°30' E 009°56'0 0.0
2018-Jun-06 18:58N 53°30' E 009°56'0 0.0
2018-Jun-06 18:28N 53°30' E 009°56'0 0.0
2018-Jun-06 17:58N 53°30' E 009°56'0 0.0
2018-Jun-06 17:28N 53°30' E 009°56'0 0.0
2018-Jun-06 16:58N 53°30' E 009°56'0 0.0
2018-Jun-06 16:28N 53°30' E 009°56'0 0.0
2018-Jun-06 15:58N 53°30' E 009°56'0 0.0
2018-Jun-06 15:28N 53°30' E 009°56'0 0.0
2018-Jun-06 14:58N 53°30' E 009°56'0 0.0
2018-Jun-06 14:28N 53°30' E 009°56'0 0.0
2018-Jun-06 13:58N 53°30' E 009°56'0 0.0
2018-Jun-06 13:28N 53°30' E 009°56'0 0.0
2018-Jun-06 12:58N 53°30' E 009°56'0 0.0
2018-Jun-06 12:28N 53°30' E 009°56'0 0.0
2018-Jun-06 11:58N 53°30' E 009°56'0 0.0
2018-Jun-06 11:28N 53°30' E 009°56'0 0.0
2018-Jun-06 10:58N 53°30' E 009°56'0 0.0
2018-Jun-06 10:28N 53°30' E 009°56'0 0.0
2018-Jun-06 09:58N 53°30' E 009°56'0 0.0
2018-Jun-06 09:28N 53°30' E 009°56'0 0.0
2018-Jun-06 08:58N 53°30' E 009°56'0 0.0
2018-Jun-06 08:28N 53°30' E 009°56'0 0.0
2018-Jun-06 07:58N 53°30' E 009°56'0 0.0
2018-Jun-06 07:28N 53°30' E 009°56'0 0.0
2018-Jun-06 06:58N 53°30' E 009°56'0 0.0
2018-Jun-06 06:28N 53°30' E 009°56'0 0.0
2018-Jun-06 05:58N 53°30' E 009°56'0 0.0
2018-Jun-06 05:28N 53°30' E 009°56'0 0.0
2018-Jun-06 04:58N 53°30' E 009°56'0 0.0
2018-Jun-06 04:28N 53°30' E 009°56'0 0.0
2018-Jun-06 03:58N 53°30' E 009°56'0 0.0
2018-Jun-06 03:28N 53°30' E 009°56'0 0.0
2018-Jun-06 02:58N 53°30' E 009°56'0 0.0
2018-Jun-06 02:28N 53°30' E 009°56'0 0.0
2018-Jun-06 01:58N 53°30' E 009°56'0 0.0
2018-Jun-06 01:28N 53°30' E 009°56'0 0.0
2018-Jun-06 00:58N 53°30' E 009°56'  
Track history (hours):
 
Tides and Currents Weather Stations Pressure Air Temp Water Temp Dewpoint Dewpoint Depression Visibility Wind Speed Wind Dir Waves Ship Positions

Hanjin Namu

Last reported at 2018-Jun-16 00:33 UTC. Time now 2018-Jun-23 00:54 UTC.
Position N 37°24' E 005°54'.

Length 337 m; draft 13.6 m.

Type: Ship (hazmat cat A). MMSI: 477441400.

Date/timePositionNaut miles runAvg speedWind from/ knotsBaromVisibWave heightAir tempDewpointWater temp
2018-Jun-16 00:33N 37°24' E 005°54'220.2
2018-Jun-16 00:28N 37°23' E 005°51'920.3
2018-Jun-16 00:00N 37°22' E 005°40'4820.5
2018-Jun-15 21:39N 37°17' E 004°40'320.2
2018-Jun-15 21:30N 37°16' E 004°36'1020.1
2018-Jun-15 21:00N 37°15' E 004°23'1019.9
2018-Jun-15 20:30N 37°14' E 004°11'1019.9
2018-Jun-15 20:00N 37°13' E 003°59'1619.5
2018-Jun-15 19:10N 37°11' E 003°38'319.1
2018-Jun-15 19:00N 37°11' E 003°34'919.0
2018-Jun-15 18:30N 37°10' E 003°22'1019.1
2018-Jun-15 18:00N 37°08' E 003°11'1019.3
2018-Jun-15 17:30N 37°08' E 002°59'1019.7
2018-Jun-15 17:00N 37°07' E 002°46'1020.6
2018-Jun-15 16:30N 37°05' E 002°34'1121.2
2018-Jun-15 16:00N 37°04' E 002°20'1020.7
2018-Jun-15 15:30N 37°03' E 002°07'1020.6
2018-Jun-15 15:00N 37°01' E 001°55'1020.5
2018-Jun-15 14:30N 36°58' E 001°42'1020.4
2018-Jun-15 14:00N 36°56' E 001°30'1020.5
2018-Jun-15 13:30N 36°54' E 001°17'1020.5
2018-Jun-15 13:00N 36°52' E 001°05'1020.4
2018-Jun-15 12:30N 36°50' E 000°52'1020.3
2018-Jun-15 12:00N 36°47' E 000°40'1020.2
2018-Jun-15 11:30N 36°46' E 000°28'1020.1
2018-Jun-15 11:00N 36°43' E 000°15'1020.2
2018-Jun-15 10:30N 36°41' E 000°03'1020.3
2018-Jun-15 10:00N 36°39' W 000°09'1019.8
2018-Jun-15 09:30N 36°36' W 000°21'1019.8
2018-Jun-15 09:00N 36°34' W 000°33'1020.0
2018-Jun-15 08:30N 36°31' W 000°45'1019.8
2018-Jun-15 08:00N 36°30' W 000°58'1019.8
2018-Jun-15 07:29N 36°27' W 001°10'1020.1
2018-Jun-15 07:00N 36°26' W 001°22'1220.2
2018-Jun-15 06:24N 36°24' W 001°36'17720.9
2018-Jun-14 21:57N 36°00' W 005°14'919.5
2018-Jun-14 21:31N 35°58' W 005°24'816.1
2018-Jun-14 21:00N 35°56' W 005°34'1514.4
2018-Jun-14 19:59N 35°54' W 005°52'714.2
2018-Jun-14 19:30N 35°54' W 006°00'3721.2
2018-Jun-14 17:44N 36°01' W 006°46'621.2
2018-Jun-14 17:28N 36°03' W 006°53'1021.0
2018-Jun-14 17:00N 36°04' W 007°04'1121.6
2018-Jun-14 16:30N 36°07' W 007°17'1020.7
2018-Jun-14 16:00N 36°10' W 007°30'1221.1
2018-Jun-14 15:26N 36°13' W 007°44'1020.9
2018-Jun-14 14:58N 36°15' W 007°56'1120.7
2018-Jun-14 14:28N 36°18' W 008°08'1020.7
2018-Jun-14 14:00N 36°21' W 008°20'1020.8
2018-Jun-14 13:30N 36°24' W 008°32'1120.8
2018-Jun-14 12:58N 36°27' W 008°46'1020.6
2018-Jun-14 12:30N 36°29' W 008°57'1020.6
2018-Jun-14 12:00N 36°32' W 009°09'4519.1
2018-Jun-14 09:39N 37°10' W 009°40'820.6
2018-Jun-14 09:17N 37°17' W 009°43'620.6
2018-Jun-14 08:59N 37°23' W 009°45'1020.4
2018-Jun-14 08:28N 37°33' W 009°48'1020.6
2018-Jun-14 08:00N 37°42' W 009°50'1020.3
2018-Jun-14 07:30N 37°53' W 009°53'1020.5
2018-Jun-14 07:00N 38°02' W 009°55'1020.4
2018-Jun-14 06:30N 38°12' W 009°58'1020.5
2018-Jun-14 06:00N 38°22' W 010°01'1020.5
2018-Jun-14 05:30N 38°33' W 010°03'1020.4
2018-Jun-14 05:00N 38°42' W 010°05'1120.8
2018-Jun-14 04:30N 38°53' W 010°05'1020.9
2018-Jun-14 04:00N 39°03' W 010°05'1020.7
2018-Jun-14 03:30N 39°14' W 010°06'1020.6
2018-Jun-14 03:00N 39°24' W 010°07'5220.7
2018-Jun-14 00:29N 40°16' W 010°06'2520.7
2018-Jun-13 23:16N 40°41' W 010°06'520.5
2018-Jun-13 23:00N 40°46' W 010°06'47120.1
2018-Jun-12 23:33N 48°10' W 006°24'1920.0
2018-Jun-12 22:37N 48°25' W 006°08'1720.8
2018-Jun-12 21:46N 48°41' W 005°55'921.2
2018-Jun-12 21:22N 48°48' W 005°49'820.9
2018-Jun-12 21:00N 48°55' W 005°43'1821.6
2018-Jun-12 20:11N 49°05' W 005°21'420.6
2018-Jun-12 20:00N 49°07' W 005°16'1218.0
2018-Jun-12 19:22N 49°12' W 004°60'717.3
2018-Jun-12 18:57N 49°15' W 004°50'716.8
2018-Jun-12 18:30N 49°19' W 004°41'1416.0
2018-Jun-12 17:40N 49°26' W 004°22'2915.4
2018-Jun-12 15:45N 49°41' W 003°44'615.6
2018-Jun-12 15:24N 49°44' W 003°36'716.0
2018-Jun-12 14:57N 49°47' W 003°27'716.6
2018-Jun-12 14:31N 49°51' W 003°17'917.3
2018-Jun-12 14:00N 49°56' W 003°05'918.0
2018-Jun-12 13:31N 49°59' W 002°53'918.7
2018-Jun-12 13:01N 50°02' W 002°39'1319.3
2018-Jun-12 12:21N 50°06' W 002°20'719.7
2018-Jun-12 12:00N 50°10' W 002°11'1019.6
2018-Jun-12 11:31N 50°15' W 001°58'1019.2
2018-Jun-12 11:00N 50°19' W 001°44'918.4
2018-Jun-12 10:30N 50°23' W 001°31'918.3
2018-Jun-12 10:01N 50°27' W 001°19'918.6
2018-Jun-12 09:30N 50°32' W 001°06'816.5
2018-Jun-12 09:01N 50°38' W 000°57'5 9.9
2018-Jun-12 08:30N 50°43' W 000°59'815.8
2018-Jun-12 08:00N 50°46' W 001°11'510.3
2018-Jun-12 07:30N 50°48' W 001°18'4 8.6
2018-Jun-12 07:00N 50°52' W 001°22'4 7.7
2018-Jun-12 06:30N 50°54' W 001°26'1 1.7
2018-Jun-12 06:00N 50°54' W 001°27'0 0.0
2018-Jun-11 11:17N 50°54' W 001°28'0 0.0
2018-Jun-11 10:59N 50°54' W 001°28'0 0.0
2018-Jun-11 10:29N 50°54' W 001°28'0 0.0
2018-Jun-11 09:17N 50°54' W 001°28'0 0.0
2018-Jun-11 08:47N 50°54' W 001°28'0 0.0
2018-Jun-11 06:44N 50°54' W 001°28'0 0.0
2018-Jun-11 06:29N 50°54' W 001°28'0 0.0
2018-Jun-11 05:59N 50°54' W 001°28'0 0.0
2018-Jun-11 05:29N 50°54' W 001°28'0 0.0
2018-Jun-11 04:59N 50°54' W 001°28'0 0.0
2018-Jun-11 04:14N 50°54' W 001°28'0 0.0
2018-Jun-11 03:05N 50°54' W 001°28'0 0.0
2018-Jun-11 02:59N 50°54' W 001°28'0 0.0
2018-Jun-11 02:29N 50°54' W 001°28'0 0.0
2018-Jun-11 01:47N 50°54' W 001°28'0 0.0
2018-Jun-11 01:29N 50°54' W 001°28'0 0.0
2018-Jun-11 00:59N 50°54' W 001°28'0 0.0
2018-Jun-11 00:29N 50°54' W 001°28'0 0.0
2018-Jun-10 08:11N 50°54' W 001°28'0 0.0
2018-Jun-10 06:51N 50°54' W 001°28'1 2.3
2018-Jun-10 06:30N 50°54' W 001°26'3 5.4
2018-Jun-10 06:00N 50°53' W 001°23'5 9.2
2018-Jun-10 05:30N 50°49' W 001°18'3 6.8
2018-Jun-10 05:01N 50°46' W 001°15'815.3
2018-Jun-10 04:30N 50°44' W 001°04'612.4
2018-Jun-10 04:00N 50°40' W 000°57'4 8.7
2018-Jun-10 03:30N 50°36' W 000°55'3 5.6
2018-Jun-10 03:00N 50°35' W 000°51'5 9.4
2018-Jun-10 02:30N 50°34' W 000°43'611.9
2018-Jun-10 02:00N 50°33' W 000°34'612.3
2018-Jun-10 01:30N 50°32' W 000°25'612.5
2018-Jun-10 01:00N 50°32' W 000°15'612.4
2018-Jun-10 00:30N 50°32' W 000°05'612.5
2018-Jun-10 00:00N 50°33' E 000°05'612.7
2018-Jun-09 23:30N 50°35' E 000°14'612.8
2018-Jun-09 23:00N 50°36' E 000°24'612.7
2018-Jun-09 22:30N 50°37' E 000°34'612.7
2018-Jun-09 22:00N 50°40' E 000°43'612.8
2018-Jun-09 21:30N 50°44' E 000°51'713.0
2018-Jun-09 21:00N 50°47' E 000°60'612.7
2018-Jun-09 20:30N 50°51' E 001°08'612.3
2018-Jun-09 20:00N 50°54' E 001°17'612.1
2018-Jun-09 19:30N 50°59' E 001°23'612.8
2018-Jun-09 19:00N 51°03' E 001°30'713.1
2018-Jun-09 18:30N 51°08' E 001°37'713.7
2018-Jun-09 18:01N 51°13' E 001°45'714.5
2018-Jun-09 17:31N 51°19' E 001°52'714.7
2018-Jun-09 17:00N 51°25' E 001°59'713.0
2018-Jun-09 16:30N 51°23' E 002°09'713.2
2018-Jun-09 16:00N 51°20' E 002°19'1414.5
2018-Jun-09 15:00N 51°23' E 002°41'714.9
2018-Jun-09 14:30N 51°25' E 002°53'917.6
2018-Jun-09 14:00N 51°24' E 003°07'918.2
2018-Jun-09 13:30N 51°24' E 003°21'918.6
2018-Jun-09 13:00N 51°26' E 003°36'714.8
2018-Jun-09 12:31N 51°22' E 003°46'815.2
2018-Jun-09 12:01N 51°24' E 003°57'4 8.9
2018-Jun-09 11:30N 51°22' E 004°04'611.9
2018-Jun-09 11:00N 51°22' E 004°13'2 3.9
2018-Jun-09 10:31N 51°21' E 004°16'0 0.0
2018-Jun-09 09:59N 51°21' E 004°16'0 0.0
2018-Jun-09 09:30N 51°21' E 004°16'0 0.0
2018-Jun-09 08:59N 51°21' E 004°16'0 0.0
2018-Jun-09 08:31N 51°21' E 004°16'0 0.0
2018-Jun-09 08:00N 51°21' E 004°16'0 0.0
2018-Jun-09 07:30N 51°21' E 004°16'0 0.0
2018-Jun-09 07:01N 51°21' E 004°16'0 0.0
2018-Jun-09 06:31N 51°21' E 004°16'0 0.0
2018-Jun-09 05:59N 51°21' E 004°16'0 0.0
2018-Jun-09 05:28N 51°21' E 004°16'0 0.0
2018-Jun-09 05:01N 51°21' E 004°16'0 0.0
2018-Jun-09 04:31N 51°21' E 004°16'0 0.0
2018-Jun-09 04:00N 51°21' E 004°16'0 0.0
2018-Jun-09 03:30N 51°21' E 004°16'0 0.0
2018-Jun-09 03:01N 51°21' E 004°16'0 0.0
2018-Jun-09 02:30N 51°21' E 004°16'0 0.0
2018-Jun-09 01:59N 51°21' E 004°16'0 0.0
2018-Jun-09 01:30N 51°21' E 004°16'0 0.0
2018-Jun-09 01:00N 51°21' E 004°16'0 0.0
2018-Jun-09 00:30N 51°21' E 004°16'0 0.0
2018-Jun-09 00:01N 51°21' E 004°16'0 0.0
2018-Jun-08 23:27N 51°21' E 004°16'0 0.0
2018-Jun-08 23:00N 51°21' E 004°16'0 0.0
2018-Jun-08 22:28N 51°21' E 004°16'0 0.0
2018-Jun-08 22:00N 51°21' E 004°16'0 0.0
2018-Jun-08 21:26N 51°21' E 004°16'0 0.0
2018-Jun-08 21:01N 51°21' E 004°16'0 0.0
2018-Jun-08 20:26N 51°21' E 004°16'0 0.0
2018-Jun-08 19:58N 51°21' E 004°16'0 0.0
2018-Jun-08 19:31N 51°21' E 004°16'0 0.0
2018-Jun-08 19:00N 51°21' E 004°16'0 0.0
2018-Jun-08 18:31N 51°21' E 004°16'0 0.0
2018-Jun-08 18:01N 51°21' E 004°16'0 0.0
2018-Jun-08 17:30N 51°21' E 004°16'0 0.0
2018-Jun-08 16:58N 51°21' E 004°16'0 0.0
2018-Jun-08 16:31N 51°21' E 004°16'0 0.0
2018-Jun-08 15:59N 51°21' E 004°16'0 0.0
2018-Jun-08 15:30N 51°21' E 004°16'0 0.0
2018-Jun-08 14:58N 51°21' E 004°16'0 0.0
2018-Jun-08 14:29N 51°21' E 004°16'0 0.0
2018-Jun-08 14:01N 51°21' E 004°16'0 0.0
2018-Jun-08 13:31N 51°21' E 004°16'0 0.0
2018-Jun-08 13:00N 51°21' E 004°16'0 0.0
2018-Jun-08 12:28N 51°21' E 004°16'0 0.0
2018-Jun-08 12:00N 51°21' E 004°16'0 0.0
2018-Jun-08 11:26N 51°21' E 004°16'0 0.0
2018-Jun-08 10:59N 51°21' E 004°16'0 0.4
2018-Jun-08 10:30N 51°21' E 004°15'4 7.1
2018-Jun-08 10:00N 51°24' E 004°12'611.3
2018-Jun-08 09:30N 51°22' E 004°03'4 8.7
2018-Jun-08 09:00N 51°25' E 003°58'612.6
2018-Jun-08 08:30N 51°21' E 003°51'612.2
2018-Jun-08 08:00N 51°23' E 003°43'5 9.3
2018-Jun-08 07:30N 51°26' E 003°36'713.1
2018-Jun-08 07:00N 51°25' E 003°26'918.9
2018-Jun-08 06:30N 51°24' E 003°11'714.7
2018-Jun-08 06:00N 51°26' E 002°59'817.0
2018-Jun-08 05:30N 51°33' E 003°08'917.5
2018-Jun-08 05:00N 51°41' E 003°12'612.6
2018-Jun-08 04:31N 51°47' E 003°16'612.4
2018-Jun-08 04:01N 51°54' E 003°16'713.3
2018-Jun-08 03:30N 51°60' E 003°19'714.1
2018-Jun-08 03:00N 52°07' E 003°21'713.9
2018-Jun-08 02:31N 52°14' E 003°22'714.0
2018-Jun-08 02:01N 52°21' E 003°25'713.8
2018-Jun-08 01:30N 52°28' E 003°27'713.9
2018-Jun-08 01:00N 52°34' E 003°29'612.9
2018-Jun-08 00:30N 52°40' E 003°34'713.6
2018-Jun-08 00:00N 52°45' E 003°41'713.5
2018-Jun-07 23:30N 52°51' E 003°48'713.5
2018-Jun-07 23:00N 52°56' E 003°56'713.5
2018-Jun-07 22:30N 53°00' E 004°04'713.4
2018-Jun-07 22:00N 53°04' E 004°12'713.6
2018-Jun-07 21:30N 53°09' E 004°21'713.4
2018-Jun-07 21:00N 53°14' E 004°28'713.7
2018-Jun-07 20:30N 53°21' E 004°31'713.9
2018-Jun-07 20:00N 53°27' E 004°36'714.9
2018-Jun-07 19:30N 53°31' E 004°47'815.3
2018-Jun-07 19:00N 53°34' E 004°59'815.1
2018-Jun-07 18:30N 53°37' E 005°11'815.1
2018-Jun-07 18:00N 53°39' E 005°23'815.0
2018-Jun-07 17:30N 53°41' E 005°35'814.7
2018-Jun-07 16:59N 53°44' E 005°47'714.3
2018-Jun-07 16:29N 53°46' E 005°59'714.0
2018-Jun-07 16:01N 53°48' E 006°09'713.6
2018-Jun-07 15:29N 53°50' E 006°21'4813.4
2018-Jun-07 11:55N 54°01' E 007°40'613.8
2018-Jun-07 11:28N 54°01' E 007°51'714.5
2018-Jun-07 10:58N 54°01' E 008°03'713.8
2018-Jun-07 10:29N 54°00' E 008°14'917.8
2018-Jun-07 10:00N 53°59' E 008°28'917.7
2018-Jun-07 09:30N 53°54' E 008°41'714.4
2018-Jun-07 09:00N 53°50' E 008°52'816.2
2018-Jun-07 08:30N 53°53' E 009°05'713.8
2018-Jun-07 08:00N 53°52' E 009°17'713.2
2018-Jun-07 07:30N 53°47' E 009°23'611.2
2018-Jun-07 07:00N 53°42' E 009°29'5 9.6
2018-Jun-07 06:30N 53°38' E 009°32'510.6
2018-Jun-07 06:00N 53°34' E 009°39'4 8.7
2018-Jun-07 05:30N 53°34' E 009°46'4 8.2
2018-Jun-07 05:00N 53°33' E 009°52'3 5.3
2018-Jun-07 04:30N 53°31' E 009°56'1 2.4
2018-Jun-07 03:58N 53°30' E 009°56'0 0.0
2018-Jun-07 03:28N 53°30' E 009°56'0 0.0
2018-Jun-07 02:58N 53°30' E 009°56'0 0.0
2018-Jun-07 02:28N 53°30' E 009°56'0 0.0
2018-Jun-07 01:58N 53°30' E 009°56'0 0.0
2018-Jun-07 01:28N 53°30' E 009°56'0 0.0
2018-Jun-07 00:58N 53°30' E 009°56'0 0.0
2018-Jun-07 00:28N 53°30' E 009°56'0 0.0
2018-Jun-06 23:58N 53°30' E 009°56'0 0.0
2018-Jun-06 23:28N 53°30' E 009°56'0 0.0
2018-Jun-06 22:58N 53°30' E 009°56'0 0.0
2018-Jun-06 22:28N 53°30' E 009°56'0 0.0
2018-Jun-06 21:58N 53°30' E 009°56'0 0.0
2018-Jun-06 21:28N 53°30' E 009°56'0 0.0
2018-Jun-06 20:58N 53°30' E 009°56'0 0.0
2018-Jun-06 20:28N 53°30' E 009°56'0 0.0
2018-Jun-06 19:58N 53°30' E 009°56'0 0.0
2018-Jun-06 19:28N 53°30' E 009°56'0 0.0
2018-Jun-06 18:58N 53°30' E 009°56'0 0.0
2018-Jun-06 18:28N 53°30' E 009°56'0 0.0
2018-Jun-06 17:58N 53°30' E 009°56'0 0.0
2018-Jun-06 17:28N 53°30' E 009°56'0 0.0
2018-Jun-06 16:58N 53°30' E 009°56'0 0.0
2018-Jun-06 16:28N 53°30' E 009°56'0 0.0
2018-Jun-06 15:58N 53°30' E 009°56'0 0.0
2018-Jun-06 15:28N 53°30' E 009°56'0 0.0
2018-Jun-06 14:58N 53°30' E 009°56'0 0.0
2018-Jun-06 14:28N 53°30' E 009°56'0 0.0
2018-Jun-06 13:58N 53°30' E 009°56'0 0.0
2018-Jun-06 13:28N 53°30' E 009°56'0 0.0
2018-Jun-06 12:58N 53°30' E 009°56'0 0.0
2018-Jun-06 12:28N 53°30' E 009°56'0 0.0
2018-Jun-06 11:58N 53°30' E 009°56'0 0.0
2018-Jun-06 11:28N 53°30' E 009°56'0 0.0
2018-Jun-06 10:58N 53°30' E 009°56'0 0.0
2018-Jun-06 10:28N 53°30' E 009°56'0 0.0
2018-Jun-06 09:58N 53°30' E 009°56'0 0.0
2018-Jun-06 09:28N 53°30' E 009°56'0 0.0
2018-Jun-06 08:58N 53°30' E 009°56'0 0.0
2018-Jun-06 08:28N 53°30' E 009°56'0 0.0
2018-Jun-06 07:58N 53°30' E 009°56'0 0.0
2018-Jun-06 07:28N 53°30' E 009°56'0 0.0
2018-Jun-06 06:58N 53°30' E 009°56'0 0.0
2018-Jun-06 06:28N 53°30' E 009°56'0 0.0
2018-Jun-06 05:58N 53°30' E 009°56'0 0.0
2018-Jun-06 05:28N 53°30' E 009°56'0 0.0
2018-Jun-06 04:58N 53°30' E 009°56'0 0.0
2018-Jun-06 04:28N 53°30' E 009°56'0 0.0
2018-Jun-06 03:58N 53°30' E 009°56'0 0.0
2018-Jun-06 03:28N 53°30' E 009°56'0 0.0
2018-Jun-06 02:58N 53°30' E 009°56'0 0.0
2018-Jun-06 02:28N 53°30' E 009°56'0 0.0
2018-Jun-06 01:58N 53°30' E 009°56'0 0.0
2018-Jun-06 01:28N 53°30' E 009°56'0 0.0
2018-Jun-06 00:58N 53°30' E 009°56'  

Dump ship's entire track history